Time,TemperatureF,DewpointF,PressureIn,WindDirection,WindDirectionDegrees,WindSpeedMPH,WindSpeedGustMPH,Humidity,HourlyPrecipIn,Conditions,Clouds,dailyrainin,SoftwareType,DateUTC
2013-04-15 00:00:00,47.9,47.8,30.11,South,190,4.8,4.8,100,0.00,,,-99.99,VWS V12.07,2013-04-15 04:00:00,
2013-04-15 00:05:00,48.1,48.0,30.11,West,281,4.6,9.9,100,0.00,,,-99.99,VWS V12.07,2013-04-15 04:05:00,
2013-04-15 00:10:00,48.2,48.0,30.10,SE,132,7.2,18.5,99,0.00,,,-99.99,VWS V12.07,2013-04-15 04:10:00,
2013-04-15 00:15:00,48.1,48.0,30.10,NNE,24,3.5,18.5,100,0.00,,,-99.99,VWS V12.07,2013-04-15 04:15:00,
2013-04-15 00:20:00,47.9,47.9,30.10,NNE,25,6.6,6.8,100,0.00,,,-99.99,VWS V12.07,2013-04-15 04:20:00,
2013-04-15 00:25:00,47.8,47.8,30.10,South,187,0.0,10.4,100,0.00,,,-99.99,VWS V12.07,2013-04-15 04:25:00,
2013-04-15 00:30:00,47.7,47.7,30.11,ENE,66,10.1,21.8,100,0.00,,,-99.99,VWS V12.07,2013-04-15 04:30:00,
2013-04-15 00:35:00,47.7,47.7,30.11,East,87,4.9,21.8,100,0.00,,,-99.99,VWS V12.07,2013-04-15 04:35:00,
2013-04-15 00:40:00,47.7,47.7,30.12,NE,55,6.4,7.6,100,0.00,,,-99.99,VWS V12.07,2013-04-15 04:40:00,
2013-04-15 00:50:00,47.8,47.8,30.12,ESE,122,7.5,16.3,100,0.00,,,-99.99,VWS V12.07,2013-04-15 04:50:00,
2013-04-15 00:55:00,47.7,47.7,30.12,East,91,7.3,16.3,100,0.00,,,-99.99,VWS V12.07,2013-04-15 04:55:00,
2013-04-15 01:00:00,47.6,47.6,30.12,ESE,107,11.6,13.4,100,0.00,,,-99.99,VWS V12.07,2013-04-15 05:00:00,
2013-04-15 01:05:00,47.5,47.5,30.12,WNW,297,0.0,14.9,100,0.00,,,-99.99,VWS V12.07,2013-04-15 05:05:00,
2013-04-15 01:10:00,47.7,47.7,30.12,NE,42,0.0,14.9,100,0.00,,,-99.99,VWS V12.07,2013-04-15 05:10:00,
2013-04-15 01:15:00,47.6,47.6,30.12,NNE,30,2.9,14.9,100,0.00,,,-99.99,VWS V12.07,2013-04-15 05:15:00,
2013-04-15 01:20:00,47.5,47.5,30.11,ENE,70,0.0,0.0,100,0.00,,,-99.99,VWS V12.07,2013-04-15 05:20:00,
2013-04-15 01:25:00,47.7,47.7,30.11,WNW,291,7.1,7.8,100,0.00,,,-99.99,VWS V12.07,2013-04-15 05:25:00,
2013-04-15 01:30:00,47.7,47.7,30.11,North,3,0.0,9.4,100,0.00,,,-99.99,VWS V12.07,2013-04-15 05:30:00,
2013-04-15 01:35:00,47.8,47.8,30.11,WNW,301,0.0,9.4,100,0.00,,,-99.99,VWS V12.07,2013-04-15 05:35:00,
2013-04-15 01:40:00,48.1,48.1,30.11,East,96,0.0,0.0,100,0.00,,,-99.99,VWS V12.07,2013-04-15 05:40:00,
2013-04-15 01:45:00,48.2,48.2,30.12,NNE,31,0.0,7.8,100,0.00,,,-99.99,VWS V12.07,2013-04-15 05:45:00,
2013-04-15 01:50:00,48.4,48.4,30.11,East,83,0.0,7.8,100,0.00,,,-99.99,VWS V12.07,2013-04-15 05:50:00,
2013-04-15 01:55:00,48.4,48.4,30.11,WSW,246,6.4,7.8,100,0.00,,,-99.99,VWS V12.07,2013-04-15 05:55:00,
2013-04-15 02:00:00,48.5,48.5,30.11,NW,318,0.0,0.0,100,0.00,,,-99.99,VWS V12.07,2013-04-15 06:00:00,
2013-04-15 02:05:00,48.5,48.5,30.10,North,359,0.0,8.6,100,0.00,,,-99.99,VWS V12.07,2013-04-15 06:05:00,
2013-04-15 02:10:00,48.6,48.6,30.10,NW,311,4.5,8.6,100,0.00,,,-99.99,VWS V12.07,2013-04-15 06:10:00,
2013-04-15 02:15:00,48.6,48.6,30.10,SE,131,0.0,9.6,100,0.00,,,-99.99,VWS V12.07,2013-04-15 06:15:00,
2013-04-15 02:20:00,48.8,48.8,30.10,NNE,20,0.0,3.0,100,0.00,,,-99.99,VWS V12.07,2013-04-15 06:20:00,
2013-04-15 02:25:00,48.5,48.5,30.10,NW,322,0.0,7.5,100,0.00,,,-99.99,VWS V12.07,2013-04-15 06:25:00,
2013-04-15 02:30:00,48.5,48.5,30.10,WNW,294,6.2,7.9,100,0.00,,,-99.99,VWS V12.07,2013-04-15 06:30:00,
2013-04-15 02:35:00,48.6,48.6,30.10,NW,316,5.8,9.1,100,0.00,,,-99.99,VWS V12.07,2013-04-15 06:35:00,
2013-04-15 02:40:00,48.7,48.7,30.10,West,278,0.0,0.0,100,0.00,,,-99.99,VWS V12.07,2013-04-15 06:40:00,
2013-04-15 02:45:00,48.9,48.9,30.10,NW,308,0.0,9.6,100,0.00,,,-99.99,VWS V12.07,2013-04-15 06:45:00,
2013-04-15 02:50:00,48.9,48.9,30.10,WNW,298,4.8,9.6,100,0.00,,,-99.99,VWS V12.07,2013-04-15 06:50:00,
2013-04-15 02:55:00,49.0,49.0,30.10,West,263,0.0,9.6,100,0.00,,,-99.99,VWS V12.07,2013-04-15 06:55:00,
2013-04-15 03:00:00,49.3,49.3,30.10,West,270,4.7,5.2,100,0.00,,,-99.99,VWS V12.07,2013-04-15 07:00:00,
2013-04-15 03:45:00,49.6,49.6,30.10,NW,325,0.0,6.0,100,0.00,,,-99.99,VWS V12.07,2013-04-15 07:45:00,
2013-04-15 03:50:00,49.7,49.7,30.10,WSW,257,6.6,6.6,100,0.00,,,-99.99,VWS V12.07,2013-04-15 07:50:00,
2013-04-15 03:55:00,49.8,49.8,30.09,NNW,338,0.0,8.5,100,0.00,,,-99.99,VWS V12.07,2013-04-15 07:55:00,
2013-04-15 04:00:00,49.8,49.8,30.09,NW,319,0.0,0.0,100,0.00,,,-99.99,VWS V12.07,2013-04-15 08:00:00,
2013-04-15 04:10:00,50.1,50.1,30.09,West,263,0.0,6.5,100,0.00,,,-99.99,VWS V12.07,2013-04-15 08:10:00,
2013-04-15 04:15:00,49.6,49.6,30.10,ENE,60,0.0,8.1,100,0.00,,,-99.99,VWS V12.07,2013-04-15 08:15:00,
2013-04-15 04:20:00,49.5,49.5,30.10,East,101,8.1,8.3,100,0.00,,,-99.99,VWS V12.07,2013-04-15 08:20:00,
2013-04-15 04:25:00,49.1,49.1,30.10,ESE,104,6.6,8.3,100,0.00,,,-99.99,VWS V12.07,2013-04-15 08:25:00,
2013-04-15 04:40:00,48.6,48.6,30.10,SE,138,3.0,3.2,100,0.00,,,-99.99,VWS V12.07,2013-04-15 08:40:00,
2013-04-15 04:45:00,49.0,49.0,30.10,SE,128,3.2,7.2,100,0.00,,,-99.99,VWS V12.07,2013-04-15 08:45:00,
2013-04-15 04:50:00,48.9,48.9,30.10,ESE,118,3.2,7.2,100,0.00,,,-99.99,VWS V12.07,2013-04-15 08:50:00,
2013-04-15 04:55:00,49.2,49.2,30.10,NE,49,0.0,7.2,100,0.00,,,-99.99,VWS V12.07,2013-04-15 08:55:00,
2013-04-15 05:00:00,48.9,48.9,30.10,East,89,2.9,2.9,100,0.00,,,-99.99,VWS V12.07,2013-04-15 09:00:00,
2013-04-15 05:05:00,48.9,48.9,30.10,East,82,4.9,7.3,100,0.00,,,-99.99,VWS V12.07,2013-04-15 09:05:00,
2013-04-15 05:10:00,48.9,48.9,30.10,NE,48,1.6,7.3,100,0.00,,,-99.99,VWS V12.07,2013-04-15 09:10:00,
2013-04-15 05:15:00,48.7,48.7,30.11,NE,39,0.0,7.3,100,0.00,,,-99.99,VWS V12.07,2013-04-15 09:15:00,
2013-04-15 05:20:00,48.9,48.9,30.11,NE,39,0.0,0.0,100,0.00,,,-99.99,VWS V12.07,2013-04-15 09:20:00,
2013-04-15 05:25:00,49.2,49.2,30.11,East,79,3.2,3.2,100,0.00,,,-99.99,VWS V12.07,2013-04-15 09:25:00,
2013-04-15 05:30:00,49.3,49.3,30.11,South,174,0.0,3.5,100,0.00,,,-99.99,VWS V12.07,2013-04-15 09:30:00,
2013-04-15 05:35:00,49.3,49.3,30.11,West,260,0.0,4.4,100,0.00,,,-99.99,VWS V12.07,2013-04-15 09:35:00,
2013-04-15 05:40:00,49.4,49.4,30.12,West,266,0.0,0.0,100,0.00,,,-99.99,VWS V12.07,2013-04-15 09:40:00,
2013-04-15 05:45:00,49.7,49.7,30.12,West,262,0.0,8.0,100,0.00,,,-99.99,VWS V12.07,2013-04-15 09:45:00,
2013-04-15 05:50:00,49.7,49.7,30.12,WNW,291,0.0,8.0,100,0.00,,,-99.99,VWS V12.07,2013-04-15 09:50:00,
2013-04-15 05:55:00,50.0,50.0,30.12,West,264,0.0,8.0,100,0.00,,,-99.99,VWS V12.07,2013-04-15 09:55:00,
2013-04-15 06:00:00,49.8,49.8,30.12,WNW,291,0.0,0.0,100,0.00,,,-99.99,VWS V12.07,2013-04-15 10:00:00,
2013-04-15 06:10:00,50.0,50.0,30.12,NW,307,0.0,4.8,100,0.00,,,-99.99,VWS V12.07,2013-04-15 10:10:00,
2013-04-15 06:15:00,50.2,50.2,30.12,NW,308,0.0,4.8,100,0.00,,,-99.99,VWS V12.07,2013-04-15 10:15:00,
2013-04-15 06:20:00,50.0,50.0,30.12,SW,218,5.5,6.6,100,0.00,,,-99.99,VWS V12.07,2013-04-15 10:20:00,
2013-04-15 06:25:00,50.0,50.0,30.12,SW,231,0.0,6.6,100,0.00,,,-99.99,VWS V12.07,2013-04-15 10:25:00,
2013-04-15 06:30:00,50.0,50.0,30.12,WNW,291,0.0,6.6,100,0.00,,,-99.99,VWS V12.07,2013-04-15 10:30:00,
2013-04-15 06:35:00,50.0,50.0,30.12,WSW,240,0.0,6.6,100,0.00,,,-99.99,VWS V12.07,2013-04-15 10:35:00,
2013-04-15 06:40:00,49.9,49.9,30.13,SW,214,3.1,4.2,100,0.00,,,-99.99,VWS V12.07,2013-04-15 10:40:00,
2013-04-15 06:45:00,49.8,49.8,30.13,West,262,0.0,5.0,100,0.00,,,-99.99,VWS V12.07,2013-04-15 10:45:00,
2013-04-15 06:50:00,49.7,49.7,30.13,WSW,257,0.0,6.6,100,0.00,,,-99.99,VWS V12.07,2013-04-15 10:50:00,
2013-04-15 07:00:00,49.5,49.5,30.13,WNW,283,0.0,0.0,100,0.00,,,-99.99,VWS V12.07,2013-04-15 11:00:00,
2013-04-15 07:05:00,49.7,49.7,30.14,WSW,250,0.0,6.6,100,0.00,,,-99.99,VWS V12.07,2013-04-15 11:05:00,
2013-04-15 07:10:00,49.8,49.8,30.14,WSW,242,0.0,6.8,100,0.00,,,-99.99,VWS V12.07,2013-04-15 11:10:00,
2013-04-15 07:15:00,49.7,49.7,30.14,WSW,242,0.0,6.8,100,0.00,,,-99.99,VWS V12.07,2013-04-15 11:15:00,
2013-04-15 07:20:00,49.8,49.8,30.14,WSW,253,0.0,0.0,100,0.00,,,-99.99,VWS V12.07,2013-04-15 11:20:00,
2013-04-15 07:25:00,49.6,49.6,30.14,WSW,253,0.0,0.0,100,0.00,,,-99.99,VWS V12.07,2013-04-15 11:25:00,
2013-04-15 07:30:00,49.7,49.7,30.14,WNW,292,6.0,7.3,100,0.00,,,-99.99,VWS V12.07,2013-04-15 11:30:00,
2013-04-15 07:35:00,49.6,49.6,30.15,WNW,284,0.0,7.3,100,0.00,,,-99.99,VWS V12.07,2013-04-15 11:35:00,
2013-04-15 07:40:00,49.9,49.9,30.15,West,269,3.0,3.4,100,0.00,,,-99.99,VWS V12.07,2013-04-15 11:40:00,
2013-04-15 07:45:00,49.8,49.8,30.15,WSW,250,0.0,4.2,100,0.00,,,-99.99,VWS V12.07,2013-04-15 11:45:00,
2013-04-15 07:50:00,50.0,50.0,30.16,West,267,2.9,5.5,100,0.00,,,-99.99,VWS V12.07,2013-04-15 11:50:00,
2013-04-15 07:55:00,50.1,50.1,30.16,WSW,255,3.3,5.5,100,0.00,,,-99.99,VWS V12.07,2013-04-15 11:55:00,
2013-04-15 08:00:00,50.1,50.1,30.16,West,266,0.0,0.0,100,0.00,,,-99.99,VWS V12.07,2013-04-15 12:00:00,
2013-04-15 08:05:00,50.2,50.2,30.16,West,266,0.0,0.0,100,0.00,,,-99.99,VWS V12.07,2013-04-15 12:05:00,
2013-04-15 08:10:00,50.5,50.5,30.16,NW,308,3.0,4.5,100,0.00,,,-99.99,VWS V12.07,2013-04-15 12:10:00,
2013-04-15 08:15:00,50.5,50.5,30.17,West,274,0.0,4.5,100,0.00,,,-99.99,VWS V12.07,2013-04-15 12:15:00,
2013-04-15 08:20:00,50.7,50.7,30.17,West,274,0.0,0.0,100,0.00,,,-99.99,VWS V12.07,2013-04-15 12:20:00,
2013-04-15 08:25:00,50.6,50.6,30.17,West,274,0.0,0.0,100,0.00,,,-99.99,VWS V12.07,2013-04-15 12:25:00,
2013-04-15 08:30:00,51.1,51.1,30.17,West,274,0.0,0.0,100,0.00,,,-99.99,VWS V12.07,2013-04-15 12:30:00,
2013-04-15 08:40:00,51.7,51.7,30.18,West,274,0.0,0.0,100,0.00,,,-99.99,VWS V12.07,2013-04-15 12:40:00,
2013-04-15 08:45:00,51.8,51.8,30.18,West,281,2.8,5.3,100,0.00,,,-99.99,VWS V12.07,2013-04-15 12:45:00,
2013-04-15 08:50:00,52.2,52.2,30.18,West,281,0.0,5.3,100,0.00,,,-99.99,VWS V12.07,2013-04-15 12:50:00,
2013-04-15 08:55:00,52.4,52.4,30.18,West,281,0.0,5.3,100,0.00,,,-99.99,VWS V12.07,2013-04-15 12:55:00,
2013-04-15 09:00:00,52.6,52.6,30.18,West,281,0.0,0.0,100,0.00,,,-99.99,VWS V12.07,2013-04-15 13:00:00,
2013-04-15 09:10:00,53.0,53.0,30.19,WNW,302,0.0,4.3,100,0.00,,,-99.99,VWS V12.07,2013-04-15 13:10:00,
2013-04-15 09:20:00,53.3,53.3,30.19,WNW,302,0.0,0.0,100,0.00,,,-99.99,VWS V12.07,2013-04-15 13:20:00,
2013-04-15 09:25:00,53.5,53.5,30.19,NW,314,0.0,3.5,100,0.00,,,-99.99,VWS V12.07,2013-04-15 13:25:00,
2013-04-15 09:35:00,53.9,53.9,30.20,WNW,291,4.6,6.9,100,0.00,,,-99.99,VWS V12.07,2013-04-15 13:35:00,
2013-04-15 09:40:00,54.1,54.1,30.20,West,262,4.5,5.2,100,0.00,,,-99.99,VWS V12.07,2013-04-15 13:40:00,
2013-04-15 09:45:00,54.3,54.3,30.20,WNW,285,4.2,5.8,100,0.00,,,-99.99,VWS V12.07,2013-04-15 13:45:00,
2013-04-15 09:55:00,54.9,54.9,30.20,WNW,287,4.2,8.1,100,0.00,,,-99.99,VWS V12.07,2013-04-15 13:55:00,
2013-04-15 10:00:00,55.0,55.0,30.20,NW,314,0.0,0.0,100,0.00,,,-99.99,VWS V12.07,2013-04-15 14:00:00,
2013-04-15 10:05:00,55.2,55.2,30.19,NW,304,0.0,7.3,100,0.00,,,-99.99,VWS V12.07,2013-04-15 14:05:00,
2013-04-15 10:10:00,55.2,55.2,30.20,West,270,3.3,7.3,100,0.00,,,-99.99,VWS V12.07,2013-04-15 14:10:00,
2013-04-15 10:15:00,55.4,55.4,30.20,WNW,295,6.1,7.3,100,0.00,,,-99.99,VWS V12.07,2013-04-15 14:15:00,
2013-04-15 10:20:00,55.6,55.6,30.20,SW,233,0.0,0.0,100,0.00,,,-99.99,VWS V12.07,2013-04-15 14:20:00,
2013-04-15 10:25:00,55.8,55.6,30.20,SW,236,6.2,7.0,99,0.00,,,-99.99,VWS V12.07,2013-04-15 14:25:00,
2013-04-15 10:35:00,55.9,55.6,30.20,NW,315,0.0,7.5,99,0.00,,,-99.99,VWS V12.07,2013-04-15 14:35:00,
2013-04-15 10:40:00,56.1,55.8,30.20,WNW,288,3.2,3.2,99,0.00,,,-99.99,VWS V12.07,2013-04-15 14:40:00,
2013-04-15 10:45:00,56.3,55.7,30.20,West,269,6.7,6.7,98,0.00,,,-99.99,VWS V12.07,2013-04-15 14:45:00,
2013-04-15 10:50:00,56.7,55.9,30.20,West,273,5.0,6.7,97,0.00,,,-99.99,VWS V12.07,2013-04-15 14:50:00,
2013-04-15 10:55:00,56.9,55.7,30.20,West,264,3.4,7.1,96,0.00,,,-99.99,VWS V12.07,2013-04-15 14:55:00,
2013-04-15 11:00:00,57.1,55.6,30.20,WNW,298,0.0,0.0,95,0.00,,,-99.99,VWS V12.07,2013-04-15 15:00:00,
2013-04-15 11:05:00,57.3,55.7,30.20,SSW,204,0.0,2.7,94,0.00,,,-99.99,VWS V12.07,2013-04-15 15:05:00,
2013-04-15 11:10:00,57.4,55.5,30.20,WNW,295,6.3,6.5,93,0.00,,,-99.99,VWS V12.07,2013-04-15 15:10:00,
2013-04-15 11:15:00,57.6,55.7,30.21,WNW,287,0.0,7.5,93,0.00,,,-99.99,VWS V12.07,2013-04-15 15:15:00,
2013-04-15 11:20:00,58.1,56.0,30.21,WSW,245,0.0,0.0,93,0.00,,,-99.99,VWS V12.07,2013-04-15 15:20:00,
2013-04-15 11:25:00,58.3,56.1,30.21,WSW,239,0.0,5.9,92,0.00,,,-99.99,VWS V12.07,2013-04-15 15:25:00,
2013-04-15 11:30:00,58.4,56.0,30.21,WSW,257,0.0,5.9,92,0.00,,,-99.99,VWS V12.07,2013-04-15 15:30:00,
2013-04-15 11:40:00,58.5,56.0,30.22,WNW,291,9.0,10.0,91,0.00,,,-99.99,VWS V12.07,2013-04-15 15:40:00,
2013-04-15 11:45:00,58.7,56.1,30.22,NW,308,8.6,10.6,91,0.00,,,-99.99,VWS V12.07,2013-04-15 15:45:00,
2013-04-15 11:50:00,58.8,56.2,30.22,WNW,287,6.6,10.6,91,0.00,,,-99.99,VWS V12.07,2013-04-15 15:50:00,
2013-04-15 11:55:00,58.9,56.1,30.22,WNW,284,6.2,10.6,90,0.00,,,-99.99,VWS V12.07,2013-04-15 15:55:00,
2013-04-15 12:00:00,59.1,56.3,30.22,West,273,0.0,0.0,90,0.00,,,-99.99,VWS V12.07,2013-04-15 16:00:00,
2013-04-15 12:10:00,59.6,56.3,30.22,NW,326,5.6,8.6,89,0.00,,,-99.99,VWS V12.07,2013-04-15 16:10:00,
2013-04-15 12:15:00,59.7,56.5,30.22,WNW,288,6.9,8.6,89,0.00,,,-99.99,VWS V12.07,2013-04-15 16:15:00,
2013-04-15 12:25:00,60.0,56.6,30.22,SW,218,0.0,7.3,88,0.00,,,-99.99,VWS V12.07,2013-04-15 16:25:00,
2013-04-15 12:30:00,60.1,56.7,30.22,West,262,2.5,7.3,89,0.00,,,-99.99,VWS V12.07,2013-04-15 16:30:00,
2013-04-15 12:35:00,60.7,57.2,30.22,SSW,205,2.2,7.3,88,0.00,,,-99.99,VWS V12.07,2013-04-15 16:35:00,
2013-04-15 12:40:00,61.2,57.2,30.22,WSW,252,0.0,0.0,87,0.00,,,-99.99,VWS V12.07,2013-04-15 16:40:00,
2013-04-15 12:45:00,61.8,57.5,30.22,WSW,240,0.0,5.7,86,0.00,,,-99.99,VWS V12.07,2013-04-15 16:45:00,
2013-04-15 12:50:00,62.3,57.3,30.22,WSW,240,0.0,5.7,84,0.00,,,-99.99,VWS V12.07,2013-04-15 16:50:00,
2013-04-15 12:55:00,62.7,57.5,30.22,SW,236,2.5,5.7,83,0.00,,,-99.99,VWS V12.07,2013-04-15 16:55:00,
2013-04-15 13:00:00,62.5,56.7,30.22,NW,311,0.0,0.0,81,0.00,,,-99.99,VWS V12.07,2013-04-15 17:00:00,
2013-04-15 13:05:00,62.7,58.2,30.22,SSE,152,2.9,7.5,85,0.00,,,-99.99,VWS V12.07,2013-04-15 17:05:00,
2013-04-15 13:10:00,62.5,58.3,30.22,East,98,0.0,8.6,86,0.00,,,-99.99,VWS V12.07,2013-04-15 17:10:00,
2013-04-15 13:15:00,62.2,58.4,30.22,ESE,110,6.5,9.5,87,0.00,,,-99.99,VWS V12.07,2013-04-15 17:15:00,
2013-04-15 13:20:00,61.8,58.3,30.22,SE,125,4.4,4.4,88,0.00,,,-99.99,VWS V12.07,2013-04-15 17:20:00,
2013-04-15 13:25:00,61.7,58.7,30.22,SE,128,3.4,7.0,90,0.00,,,-99.99,VWS V12.07,2013-04-15 17:25:00,
2013-04-15 13:30:00,61.6,58.5,30.22,East,93,0.0,7.0,90,0.00,,,-99.99,VWS V12.07,2013-04-15 17:30:00,
2013-04-15 13:35:00,61.7,58.5,30.22,SE,124,5.0,7.0,89,0.00,,,-99.99,VWS V12.07,2013-04-15 17:35:00,
2013-04-15 13:45:00,62.6,59.7,30.22,East,93,7.5,11.6,90,0.00,,,-99.99,VWS V12.07,2013-04-15 17:45:00,
2013-04-15 13:50:00,62.6,59.4,30.22,ESE,105,7.8,11.6,89,0.00,,,-99.99,VWS V12.07,2013-04-15 17:50:00,
2013-04-15 13:55:00,62.5,59.1,30.22,East,93,4.5,11.6,89,0.00,,,-99.99,VWS V12.07,2013-04-15 17:55:00,
2013-04-15 14:00:00,62.0,58.7,30.22,East,93,8.9,10.6,89,0.00,,,-99.99,VWS V12.07,2013-04-15 18:00:00,
2013-04-15 14:05:00,62.2,59.2,30.22,ESE,107,9.4,12.6,90,0.00,,,-99.99,VWS V12.07,2013-04-15 18:05:00,
2013-04-15 14:10:00,62.2,59.3,30.22,ESE,117,6.5,12.6,90,0.00,,,-99.99,VWS V12.07,2013-04-15 18:10:00,
2013-04-15 14:15:00,62.7,59.8,30.22,East,87,7.0,12.6,90,0.00,,,-99.99,VWS V12.07,2013-04-15 18:15:00,
2013-04-15 14:20:00,62.8,59.6,30.22,ESE,112,5.8,7.5,89,0.00,,,-99.99,VWS V12.07,2013-04-15 18:20:00,
2013-04-15 14:30:00,63.0,59.7,30.22,ENE,77,6.6,12.3,89,0.00,,,-99.99,VWS V12.07,2013-04-15 18:30:00,
2013-04-15 14:35:00,63.1,59.3,30.22,NNE,13,5.8,12.3,88,0.00,,,-99.99,VWS V12.07,2013-04-15 18:35:00,
2013-04-15 14:40:00,63.3,59.9,30.22,East,87,8.2,8.3,89,0.00,,,-99.99,VWS V12.07,2013-04-15 18:40:00,
2013-04-15 14:45:00,63.4,59.7,30.22,ENE,75,11.6,14.4,88,0.00,,,-99.99,VWS V12.07,2013-04-15 18:45:00,
2013-04-15 14:50:00,63.3,59.6,30.22,East,101,9.9,14.9,88,0.00,,,-99.99,VWS V12.07,2013-04-15 18:50:00,
2013-04-15 14:55:00,63.1,59.6,30.22,East,97,7.8,14.9,88,0.00,,,-99.99,VWS V12.07,2013-04-15 18:55:00,
2013-04-15 15:00:00,63.2,59.6,30.22,East,90,10.3,11.8,88,0.00,,,-99.99,VWS V12.07,2013-04-15 19:00:00,
2013-04-15 15:05:00,63.0,59.5,30.22,East,82,7.9,17.0,88,0.00,,,-99.99,VWS V12.07,2013-04-15 19:05:00,
2013-04-15 15:10:00,63.1,59.6,30.22,East,87,14.9,17.6,88,0.00,,,-99.99,VWS V12.07,2013-04-15 19:10:00,
2013-04-15 15:15:00,62.9,59.4,30.22,East,101,14.7,18.8,88,0.00,,,-99.99,VWS V12.07,2013-04-15 19:15:00,
2013-04-15 15:20:00,63.1,59.6,30.22,East,80,11.8,13.5,88,0.00,,,-99.99,VWS V12.07,2013-04-15 19:20:00,
2013-04-15 15:25:00,63.2,59.6,30.22,ESE,117,1.4,14.0,88,0.00,,,-99.99,VWS V12.07,2013-04-15 19:25:00,
2013-04-15 15:30:00,63.9,60.2,30.22,East,86,9.7,14.0,88,0.00,,,-99.99,VWS V12.07,2013-04-15 19:30:00,
2013-04-15 15:40:00,63.9,59.7,30.22,ESE,103,13.9,14.2,86,0.00,,,-99.99,VWS V12.07,2013-04-15 19:40:00,
2013-04-15 15:45:00,63.9,59.7,30.21,East,84,11.2,16.5,86,0.00,,,-99.99,VWS V12.07,2013-04-15 19:45:00,
2013-04-15 15:50:00,63.7,59.5,30.21,ENE,77,10.1,17.8,86,0.00,,,-99.99,VWS V12.07,2013-04-15 19:50:00,
2013-04-15 15:55:00,63.6,59.4,30.21,East,83,9.7,17.8,86,0.00,,,-99.99,VWS V12.07,2013-04-15 19:55:00,
2013-04-15 16:00:00,63.7,59.5,30.21,East,89,10.9,11.5,86,0.00,,,-99.99,VWS V12.07,2013-04-15 20:00:00,
2013-04-15 16:05:00,63.7,59.4,30.21,East,86,9.1,19.3,86,0.00,,,-99.99,VWS V12.07,2013-04-15 20:05:00,
2013-04-15 16:10:00,63.7,59.5,30.21,East,91,14.2,19.3,86,0.00,,,-99.99,VWS V12.07,2013-04-15 20:10:00,
2013-04-15 16:15:00,63.8,59.8,30.21,East,79,7.7,19.3,87,0.00,,,-99.99,VWS V12.07,2013-04-15 20:15:00,
2013-04-15 16:20:00,64.1,59.8,30.21,NE,56,12.4,13.2,86,0.00,,,-99.99,VWS V12.07,2013-04-15 20:20:00,
2013-04-15 16:25:00,64.0,59.7,30.21,East,100,13.7,15.2,86,0.00,,,-99.99,VWS V12.07,2013-04-15 20:25:00,
2013-04-15 16:30:00,64.0,59.6,30.21,ENE,65,11.5,15.7,86,0.00,,,-99.99,VWS V12.07,2013-04-15 20:30:00,
2013-04-15 16:35:00,64.0,59.5,30.21,ESE,115,15.0,15.8,85,0.00,,,-99.99,VWS V12.07,2013-04-15 20:35:00,
2013-04-15 16:40:00,64.2,59.6,30.21,East,84,11.1,12.4,85,0.00,,,-99.99,VWS V12.07,2013-04-15 20:40:00,
2013-04-15 16:45:00,64.2,59.5,30.21,East,79,12.2,14.7,85,0.00,,,-99.99,VWS V12.07,2013-04-15 20:45:00,
2013-04-15 16:50:00,63.9,59.3,30.21,East,91,13.7,19.4,85,0.00,,,-99.99,VWS V12.07,2013-04-15 20:50:00,
2013-04-15 16:55:00,63.6,59.4,30.21,East,96,15.6,19.4,86,0.00,,,-99.99,VWS V12.07,2013-04-15 20:55:00,
2013-04-15 17:00:00,63.4,59.5,30.21,ESE,115,11.6,13.0,87,0.00,,,-99.99,VWS V12.07,2013-04-15 21:00:00,
2013-04-15 17:05:00,63.4,59.5,30.21,East,94,14.3,17.8,87,0.00,,,-99.99,VWS V12.07,2013-04-15 21:05:00,
2013-04-15 17:10:00,63.2,59.5,30.21,ESE,104,13.0,17.8,88,0.00,,,-99.99,VWS V12.07,2013-04-15 21:10:00,
2013-04-15 17:20:00,62.7,59.2,30.21,East,83,14.0,14.2,88,0.00,,,-99.99,VWS V12.07,2013-04-15 21:20:00,
2013-04-15 17:25:00,62.5,59.3,30.21,ENE,72,7.0,14.2,89,0.00,,,-99.99,VWS V12.07,2013-04-15 21:25:00,
2013-04-15 17:30:00,62.5,59.4,30.21,East,89,10.8,15.1,90,0.00,,,-99.99,VWS V12.07,2013-04-15 21:30:00,
2013-04-15 17:35:00,62.5,59.5,30.21,ESE,111,8.1,15.1,90,0.00,,,-99.99,VWS V12.07,2013-04-15 21:35:00,
2013-04-15 17:40:00,62.4,59.4,30.21,ESE,117,15.3,16.3,90,0.00,,,-99.99,VWS V12.07,2013-04-15 21:40:00,
2013-04-15 17:45:00,62.1,59.2,30.22,East,80,10.3,16.8,90,0.00,,,-99.99,VWS V12.07,2013-04-15 21:45:00,
2013-04-15 17:50:00,61.9,59.1,30.22,East,91,8.9,16.8,91,0.00,,,-99.99,VWS V12.07,2013-04-15 21:50:00,
2013-04-15 17:55:00,61.7,59.1,30.22,East,80,9.3,16.8,91,0.00,,,-99.99,VWS V12.07,2013-04-15 21:55:00,
2013-04-15 18:00:00,61.5,59.0,30.22,ENE,70,9.9,9.9,91,0.00,,,-99.99,VWS V12.07,2013-04-15 22:00:00,
2013-04-15 18:05:00,61.4,58.9,30.23,ESE,105,11.1,14.3,91,0.00,,,-99.99,VWS V12.07,2013-04-15 22:05:00,
2013-04-15 18:10:00,61.0,58.6,30.23,ENE,63,6.0,14.9,92,0.00,,,-99.99,VWS V12.07,2013-04-15 22:10:00,
2013-04-15 18:15:00,60.8,58.5,30.23,East,87,12.0,15.3,92,0.00,,,-99.99,VWS V12.07,2013-04-15 22:15:00,
2013-04-15 18:20:00,60.5,58.3,30.24,SSE,149,7.2,7.8,92,0.00,,,-99.99,VWS V12.07,2013-04-15 22:20:00,
2013-04-15 18:25:00,60.4,58.2,30.23,ENE,70,7.6,13.3,93,0.00,,,-99.99,VWS V12.07,2013-04-15 22:25:00,
2013-04-15 18:30:00,60.0,58.0,30.24,ESE,104,12.6,14.7,93,0.00,,,-99.99,VWS V12.07,2013-04-15 22:30:00,
2013-04-15 18:35:00,60.0,58.1,30.24,ESE,104,8.8,15.8,94,0.00,,,-99.99,VWS V12.07,2013-04-15 22:35:00,
2013-04-15 18:40:00,59.7,57.9,30.24,SE,124,12.1,12.6,94,0.00,,,-99.99,VWS V12.07,2013-04-15 22:40:00,
2013-04-15 18:45:00,59.5,57.7,30.24,ESE,112,9.4,14.9,94,0.00,,,-99.99,VWS V12.07,2013-04-15 22:45:00,
2013-04-15 18:50:00,59.4,57.8,30.25,ENE,77,8.0,16.2,94,0.00,,,-99.99,VWS V12.07,2013-04-15 22:50:00,
2013-04-15 18:55:00,59.0,57.5,30.25,East,82,11.6,16.2,95,0.00,,,-99.99,VWS V12.07,2013-04-15 22:55:00,
2013-04-15 19:00:00,58.4,57.2,30.25,East,90,15.6,15.6,96,0.00,,,-99.99,VWS V12.07,2013-04-15 23:00:00,
2013-04-15 19:05:00,58.0,57.0,30.25,ENE,70,9.8,17.1,97,0.00,,,-99.99,VWS V12.07,2013-04-15 23:05:00,
2013-04-15 19:10:00,57.7,57.0,30.25,East,89,12.1,17.1,97,0.00,,,-99.99,VWS V12.07,2013-04-15 23:10:00,
2013-04-15 19:15:00,57.4,56.8,30.25,ESE,111,9.2,17.1,98,0.00,,,-99.99,VWS V12.07,2013-04-15 23:15:00,
2013-04-15 19:20:00,57.2,56.8,30.25,ESE,115,10.1,12.5,98,0.00,,,-99.99,VWS V12.07,2013-04-15 23:20:00,
2013-04-15 19:25:00,57.0,56.7,30.26,SE,141,9.8,13.2,99,0.00,,,-99.99,VWS V12.07,2013-04-15 23:25:00,
2013-04-15 19:30:00,56.8,56.7,30.26,East,87,10.3,13.2,100,0.00,,,-99.99,VWS V12.07,2013-04-15 23:30:00,
2013-04-15 19:35:00,56.6,56.6,30.26,ENE,77,7.8,15.3,100,0.00,,,-99.99,VWS V12.07,2013-04-15 23:35:00,
2013-04-15 19:45:00,55.9,55.9,30.27,ESE,104,9.3,12.5,100,0.00,,,-99.99,VWS V12.07,2013-04-15 23:45:00,
2013-04-15 19:50:00,55.6,55.6,30.27,East,94,6.3,15.3,100,0.00,,,-99.99,VWS V12.07,2013-04-15 23:50:00,
2013-04-15 19:55:00,55.4,55.4,30.27,SE,135,6.5,15.3,100,0.00,,,-99.99,VWS V12.07,2013-04-15 23:55:00,
2013-04-15 20:00:00,55.2,55.2,30.27,East,91,8.8,9.1,100,0.00,,,-99.99,VWS V12.07,2013-04-16 00:00:00,
2013-04-15 20:10:00,54.8,54.8,30.27,ESE,112,7.0,13.8,100,0.00,,,-99.99,VWS V12.07,2013-04-16 00:10:00,
2013-04-15 20:15:00,54.7,54.7,30.28,ESE,111,10.3,13.8,100,0.00,,,-99.99,VWS V12.07,2013-04-16 00:15:00,
2013-04-15 20:25:00,54.6,54.6,30.28,SE,134,7.2,10.3,100,0.00,,,-99.99,VWS V12.07,2013-04-16 00:25:00,
2013-04-15 20:30:00,54.6,54.6,30.28,ESE,117,7.0,10.4,100,0.00,,,-99.99,VWS V12.07,2013-04-16 00:30:00,
2013-04-15 20:35:00,54.6,54.6,30.29,East,80,0.0,10.7,100,0.00,,,-99.99,VWS V12.07,2013-04-16 00:35:00,
2013-04-15 20:40:00,54.4,54.4,30.29,East,86,6.5,7.3,100,0.00,,,-99.99,VWS V12.07,2013-04-16 00:40:00,
2013-04-15 20:45:00,54.4,54.4,30.29,SE,124,7.1,9.6,100,0.00,,,-99.99,VWS V12.07,2013-04-16 00:45:00,
2013-04-15 20:55:00,54.1,54.1,30.29,SE,146,5.1,10.6,100,0.00,,,-99.99,VWS V12.07,2013-04-16 00:55:00,
2013-04-15 21:00:00,54.3,54.3,30.29,SSE,149,4.3,4.3,100,0.00,,,-99.99,VWS V12.07,2013-04-16 01:00:00,
2013-04-15 21:05:00,54.3,54.3,30.30,ESE,110,0.0,5.4,100,0.00,,,-99.99,VWS V12.07,2013-04-16 01:05:00,
2013-04-15 21:10:00,54.3,54.3,30.30,ESE,121,3.2,5.6,100,0.00,,,-99.99,VWS V12.07,2013-04-16 01:10:00,
2013-04-15 21:15:00,54.1,54.1,30.30,ESE,121,0.0,5.6,100,0.00,,,-99.99,VWS V12.07,2013-04-16 01:15:00,
2013-04-15 21:20:00,54.0,54.0,30.30,ESE,121,0.0,0.0,100,0.00,,,-99.99,VWS V12.07,2013-04-16 01:20:00,
2013-04-15 21:25:00,53.9,53.9,30.31,ESE,121,0.0,0.0,100,0.00,,,-99.99,VWS V12.07,2013-04-16 01:25:00,
2013-04-15 21:30:00,53.9,53.9,30.31,ESE,121,0.0,0.0,100,0.00,,,-99.99,VWS V12.07,2013-04-16 01:30:00,
2013-04-15 21:35:00,53.8,53.8,30.31,ESE,121,0.0,0.0,100,0.00,,,-99.99,VWS V12.07,2013-04-16 01:35:00,
2013-04-15 21:40:00,53.7,53.7,30.31,ESE,121,0.0,0.0,100,0.00,,,-99.99,VWS V12.07,2013-04-16 01:40:00,
2013-04-15 21:45:00,53.7,53.7,30.31,ESE,121,0.0,0.0,100,0.00,,,-99.99,VWS V12.07,2013-04-16 01:45:00,
2013-04-15 21:50:00,54.0,54.0,30.31,ESE,121,0.0,0.0,100,0.00,,,-99.99,VWS V12.07,2013-04-16 01:50:00,
2013-04-15 21:55:00,54.3,54.3,30.32,ESE,121,0.0,0.0,100,0.00,,,-99.99,VWS V12.07,2013-04-16 01:55:00,
2013-04-15 22:00:00,54.5,54.5,30.32,ESE,121,0.0,0.0,100,0.00,,,-99.99,VWS V12.07,2013-04-16 02:00:00,
2013-04-15 22:05:00,54.7,54.7,30.32,SW,222,3.2,7.3,100,0.00,,,-99.99,VWS V12.07,2013-04-16 02:05:00,
2013-04-15 22:10:00,54.8,54.8,30.32,SW,222,0.0,7.3,100,0.00,,,-99.99,VWS V12.07,2013-04-16 02:10:00,
2013-04-15 22:20:00,54.9,54.9,30.33,SW,222,0.0,0.0,100,0.00,,,-99.99,VWS V12.07,2013-04-16 02:20:00,
2013-04-15 22:25:00,54.5,54.5,30.33,SW,222,0.0,0.0,100,0.00,,,-99.99,VWS V12.07,2013-04-16 02:25:00,
2013-04-15 22:30:00,54.4,54.4,30.33,SW,222,0.0,3.4,100,0.00,,,-99.99,VWS V12.07,2013-04-16 02:30:00,
2013-04-15 22:35:00,54.3,54.3,30.33,WNW,301,0.0,6.0,100,0.00,,,-99.99,VWS V12.07,2013-04-16 02:35:00,
2013-04-15 22:40:00,54.3,54.3,30.33,WNW,287,0.0,0.0,100,0.00,,,-99.99,VWS V12.07,2013-04-16 02:40:00,
2013-04-15 22:45:00,54.4,54.4,30.33,SW,226,2.5,7.5,100,0.00,,,-99.99,VWS V12.07,2013-04-16 02:45:00,
2013-04-15 22:50:00,54.5,54.5,30.33,West,270,2.1,7.6,100,0.00,,,-99.99,VWS V12.07,2013-04-16 02:50:00,
2013-04-15 22:55:00,54.5,54.5,30.33,West,264,0.0,7.6,100,0.00,,,-99.99,VWS V12.07,2013-04-16 02:55:00,
2013-04-15 23:00:00,54.8,54.8,30.33,West,281,5.9,6.4,100,0.00,,,-99.99,VWS V12.07,2013-04-16 03:00:00,
2013-04-15 23:05:00,54.8,54.8,30.33,WNW,283,5.8,8.7,100,0.00,,,-99.99,VWS V12.07,2013-04-16 03:05:00,
2013-04-15 23:10:00,54.9,54.9,30.33,NE,51,0.0,9.1,100,0.00,,,-99.99,VWS V12.07,2013-04-16 03:10:00,
2013-04-15 23:15:00,55.0,55.0,30.33,SW,233,0.0,9.9,100,0.00,,,-99.99,VWS V12.07,2013-04-16 03:15:00,
2013-04-15 23:20:00,55.0,55.0,30.33,WSW,253,6.2,6.2,100,0.00,,,-99.99,VWS V12.07,2013-04-16 03:20:00,
2013-04-15 23:25:00,55.0,55.0,30.33,WNW,301,7.9,13.5,100,0.00,,,-99.99,VWS V12.07,2013-04-16 03:25:00,
2013-04-15 23:30:00,55.0,55.0,30.33,West,264,4.9,13.5,100,0.00,,,-99.99,VWS V12.07,2013-04-16 03:30:00,
2013-04-15 23:35:00,55.1,55.1,30.33,West,281,9.4,14.3,100,0.00,,,-99.99,VWS V12.07,2013-04-16 03:35:00,
2013-04-15 23:40:00,55.1,55.1,30.33,WSW,253,3.1,3.1,100,0.00,,,-99.99,VWS V12.07,2013-04-16 03:40:00,
2013-04-15 23:45:00,55.1,55.1,30.33,West,260,5.0,9.1,100,0.00,,,-99.99,VWS V12.07,2013-04-16 03:45:00,
2013-04-15 23:50:00,55.2,55.2,30.34,West,264,5.3,9.3,100,0.00,,,-99.99,VWS V12.07,2013-04-16 03:50:00,
2013-04-15 23:55:00,55.2,55.2,30.34,SW,235,4.6,10.0,100,0.00,,,-99.99,VWS V12.07,2013-04-16 03:55:00,